Time;durP1;ratioP1;P1;durP2;ratioP2;P2;SDS_P1;SDS_P2;PMS_P1;PMS_P2;Temp;Humidity;BMP_temperature;BMP_pressure;BME280_temperature;BME280_humidity;BME280_pressure;Samples;Min_cycle;Max_cycle;Signal;HPM_P1;HPM_P2
2022/08/10 00:00:21;;;;;;;7.57;3.72;;;;;;;18.33;67.04;102079.97;10599625;28;20040;-81
2022/08/10 00:05:24;;;;;;;8.52;4.03;;;;;;;18.27;66.91;102085.91;10585376;28;20044;-81
2022/08/10 00:10:26;;;;;;;6.47;3.72;;;;;;;18.30;66.89;102072.25;10593098;28;20040;-81
2022/08/10 00:15:28;;;;;;;13.40;4.38;;;;;;;18.20;66.69;102085.44;10575027;28;20078;-80
2022/08/10 00:20:31;;;;;;;9.73;4.20;;;;;;;18.08;67.21;102085.88;10603061;28;20043;-81
2022/08/10 00:25:33;;;;;;;13.45;4.35;;;;;;;18.13;67.01;102083.03;10592268;27;20035;-81
2022/08/10 00:30:35;;;;;;;11.05;4.57;;;;;;;18.17;67.20;102086.88;10608816;28;20044;-81
2022/08/10 00:35:37;;;;;;;6.90;4.60;;;;;;;18.23;66.53;102088.47;10574598;28;20047;-81
2022/08/10 00:40:40;;;;;;;11.35;4.25;;;;;;;18.18;66.92;102079.34;10593707;28;20040;-80
2022/08/10 00:45:42;;;;;;;8.43;4.82;;;;;;;17.99;67.29;102084.88;10548077;28;20498;-92
2022/08/10 00:50:45;;;;;;;7.93;4.28;;;;;;;18.00;67.04;102073.47;10556779;28;20094;-87
2022/08/10 00:55:47;;;;;;;9.45;4.35;;;;;;;17.94;66.87;102079.38;10620239;28;20044;-89
2022/08/10 01:00:50;;;;;;;11.05;4.10;;;;;;;17.97;66.78;102079.59;10601921;28;20046;-85
2022/08/10 01:06:16;;;;;;;10.73;4.30;;;;;;;17.88;67.23;102086.97;10617483;28;20036;-92
2022/08/10 01:11:42;;;;;;;11.35;4.70;;;;;;;17.81;67.24;102085.63;10618452;28;20036;-90
2022/08/10 01:16:53;;;;;;;14.05;4.95;;;;;;;17.81;67.09;102085.63;10591097;28;20052;-91
2022/08/10 01:22:17;;;;;;;11.02;5.00;;;;;;;17.87;66.92;102092.78;10551237;28;20044;-89
2022/08/10 01:27:43;;;;;;;17.60;4.95;;;;;;;17.77;67.30;102086.22;10546699;28;20055;-90
2022/08/10 01:33:08;;;;;;;10.23;4.60;;;;;;;17.76;67.00;102090.13;10591295;28;20042;-89
2022/08/10 01:38:23;;;;;;;13.52;4.80;;;;;;;17.62;67.05;102086.34;10578029;28;20039;-83
2022/08/10 01:43:27;;;;;;;22.75;6.32;;;;;;;17.57;67.50;102086.41;10604244;28;20047;-79
2022/08/10 01:48:33;;;;;;;24.33;7.53;;;;;;;17.47;66.87;102092.06;10582648;28;20686;-79
2022/08/10 01:53:42;;;;;;;20.98;6.80;;;;;;;17.32;67.45;102075.53;10589237;28;20047;-79
2022/08/10 01:58:48;;;;;;;24.15;6.70;;;;;;;17.18;67.17;102076.25;10562894;28;20048;-79
2022/08/10 02:03:54;;;;;;;31.27;7.80;;;;;;;16.96;67.67;102078.63;10596687;28;20044;-79
2022/08/10 02:08:57;;;;;;;24.23;6.72;;;;;;;16.70;68.24;102082.72;10555738;28;20044;-79
2022/08/10 02:13:59;;;;;;;22.85;6.25;;;;;;;16.51;69.11;102077.81;10578626;28;20052;-78
2022/08/10 02:19:02;;;;;;;21.60;7.18;;;;;;;16.45;69.63;102084.47;10587532;28;20062;-78
2022/08/10 02:24:07;;;;;;;21.00;6.57;;;;;;;16.50;69.99;102090.00;10577063;28;20047;-79
2022/08/10 02:29:12;;;;;;;25.92;6.72;;;;;;;16.95;69.61;102084.47;10583240;28;20040;-79
2022/08/10 02:34:14;;;;;;;17.67;5.85;;;;;;;17.22;68.65;102087.59;10612327;28;20035;-78
2022/08/10 02:39:17;;;;;;;17.05;6.20;;;;;;;17.47;67.82;102092.88;10576145;28;20036;-78
2022/08/10 02:44:37;;;;;;;18.08;6.35;;;;;;;17.39;67.77;102089.94;10577561;28;20042;-78
2022/08/10 02:50:07;;;;;;;16.70;6.47;;;;;;;17.40;67.72;102089.63;10591572;28;20048;-79
2022/08/10 02:55:16;;;;;;;19.10;6.15;;;;;;;17.39;67.79;102078.81;10594674;28;20058;-78
2022/08/10 03:00:18;;;;;;;19.27;6.57;;;;;;;17.70;66.92;102085.75;10594584;28;20040;-79
2022/08/10 03:05:20;;;;;;;22.85;7.32;;;;;;;18.08;66.42;102094.22;10595594;28;20031;-79
2022/08/10 03:10:26;;;;;;;23.17;6.47;;;;;;;18.31;65.81;102089.75;10588621;28;20035;-79
2022/08/10 03:15:30;;;;;;;18.83;6.68;;;;;;;18.39;65.99;102095.44;10610174;28;20058;-79
2022/08/10 03:20:36;;;;;;;23.67;6.13;;;;;;;18.44;66.17;102085.41;10603708;28;20055;-79
2022/08/10 03:25:38;;;;;;;21.92;6.97;;;;;;;18.50;66.20;102092.56;10592898;28;20040;-79
2022/08/10 03:30:40;;;;;;;17.40;6.38;;;;;;;18.70;65.93;102078.38;10593099;27;20039;-79
2022/08/10 03:35:43;;;;;;;25.20;7.05;;;;;;;18.85;65.78;102082.88;10592915;28;20043;-79
2022/08/10 03:40:45;;;;;;;13.00;5.72;;;;;;;18.92;65.17;102089.75;10589735;28;20043;-79
2022/08/10 03:45:51;;;;;;;18.67;6.30;;;;;;;18.97;65.80;102083.25;10589343;28;20051;-79
2022/08/10 03:50:54;;;;;;;12.68;6.25;;;;;;;19.23;65.09;102086.44;10590410;28;20406;-79
2022/08/10 03:55:57;;;;;;;11.80;5.90;;;;;;;19.37;65.05;102084.53;10587883;28;20051;-79
2022/08/10 04:00:59;;;;;;;16.17;6.22;;;;;;;19.56;65.25;102088.09;10586360;28;20036;-79
2022/08/10 04:06:02;;;;;;;9.25;4.93;;;;;;;19.82;64.73;102096.00;10593683;28;20031;-79
2022/08/10 04:11:04;;;;;;;9.30;5.50;;;;;;;19.97;64.36;102098.47;10591631;28;20241;-79
2022/08/10 04:16:07;;;;;;;9.30;4.55;;;;;;;20.24;63.73;102097.63;10601995;28;20428;-78
2022/08/10 04:21:13;;;;;;;9.95;4.80;;;;;;;20.55;63.17;102092.25;10575064;28;20408;-78
2022/08/10 04:26:15;;;;;;;10.87;4.80;;;;;;;20.82;62.34;102096.91;10555653;28;20737;-78
2022/08/10 04:31:18;;;;;;;9.07;4.47;;;;;;;21.23;61.57;102102.34;10571076;28;20472;-79
2022/08/10 04:36:21;;;;;;;9.57;4.68;;;;;;;21.76;60.02;102104.31;10582093;28;20043;-78
2022/08/10 04:41:23;;;;;;;11.68;4.75;;;;;;;22.02;59.62;102101.63;10567735;28;20054;-78
2022/08/10 04:46:25;;;;;;;9.63;4.38;;;;;;;22.35;58.69;102099.28;10604252;28;20047;-77
2022/08/10 04:51:27;;;;;;;8.70;4.15;;;;;;;22.57;57.46;102103.97;10569123;28;20040;-78
2022/08/10 04:56:30;;;;;;;10.05;4.15;;;;;;;22.92;56.75;102099.22;10587242;28;20133;-77
2022/08/10 05:01:33;;;;;;;8.95;3.80;;;;;;;23.43;54.66;102101.16;10600454;28;20043;-77
2022/08/10 05:06:35;;;;;;;7.15;3.88;;;;;;;23.83;52.83;102097.25;10591505;28;20050;-77
2022/08/10 05:11:37;;;;;;;11.52;3.75;;;;;;;24.18;52.91;102097.91;10600827;28;20044;-77
2022/08/10 05:16:39;;;;;;;11.40;4.75;;;;;;;24.43;51.92;102104.56;10585033;28;20493;-77
2022/08/10 05:21:43;;;;;;;10.02;4.97;;;;;;;24.81;50.33;102108.06;10609018;28;20164;-77
2022/08/10 05:26:46;;;;;;;15.63;5.07;;;;;;;24.91;50.36;102102.06;10590900;28;20429;-77
2022/08/10 05:31:48;;;;;;;9.20;5.10;;;;;;;25.11;47.29;102102.41;10605634;28;20063;-77
2022/08/10 05:36:51;;;;;;;6.93;4.05;;;;;;;25.55;46.22;102098.81;10614950;28;20069;-77
2022/08/10 05:41:53;;;;;;;6.63;3.25;;;;;;;25.75;44.08;102087.88;10596984;28;20516;-77
2022/08/10 05:46:56;;;;;;;4.45;3.20;;;;;;;25.84;42.77;102097.81;10585512;28;20036;-77
2022/08/10 05:51:58;;;;;;;5.50;2.92;;;;;;;25.80;42.00;102099.69;10615828;28;20040;-77
2022/08/10 05:57:00;;;;;;;6.75;2.85;;;;;;;26.04;41.78;102095.28;10593968;28;20047;-77
2022/08/10 06:02:03;;;;;;;6.60;3.00;;;;;;;26.27;41.41;102095.63;10610764;28;20043;-77
2022/08/10 06:07:06;;;;;;;5.07;2.80;;;;;;;26.54;40.87;102103.34;10560179;28;20412;-77
2022/08/10 06:12:09;;;;;;;3.30;2.28;;;;;;;26.96;40.72;102097.38;10590200;28;20464;-77
2022/08/10 06:17:11;;;;;;;2.92;2.10;;;;;;;27.10;41.31;102094.19;10586395;28;20050;-78
2022/08/10 06:22:13;;;;;;;2.75;1.80;;;;;;;27.50;40.93;102092.09;10586420;28;20047;-77
2022/08/10 06:27:16;;;;;;;1.80;1.27;;;;;;;27.50;41.12;102094.09;10592289;28;20082;-75
2022/08/10 06:32:24;;;;;;;4.15;1.40;;;;;;;27.59;41.08;102086.25;10601268;28;20408;-75
2022/08/10 06:37:27;;;;;;;5.28;1.52;;;;;;;27.36;39.93;102088.06;10585054;28;20035;-76
2022/08/10 06:42:32;;;;;;;2.60;0.90;;;;;;;27.45;40.54;102085.91;10594439;28;20047;-76
2022/08/10 06:47:50;;;;;;;1.55;1.20;;;;;;;27.70;38.90;102092.22;10547966;28;20047;-76
2022/08/10 06:52:54;;;;;;;3.30;1.40;;;;;;;28.12;39.20;102086.84;10590827;28;20075;-76
2022/08/10 06:57:57;;;;;;;1.45;1.10;;;;;;;28.42;38.83;102090.00;10580609;28;20051;-75
2022/08/10 07:03:05;;;;;;;1.55;1.38;;;;;;;28.67;38.22;102084.91;10591495;28;20054;-75
2022/08/10 07:08:08;;;;;;;3.70;1.60;;;;;;;28.90;38.32;102094.31;10594568;28;20043;-76
2022/08/10 07:13:13;;;;;;;2.88;1.38;;;;;;;28.91;39.21;102090.31;10588632;28;20071;-76
2022/08/10 07:18:18;;;;;;;2.30;1.60;;;;;;;28.98;39.36;102104.56;10610835;28;20058;-75
2022/08/10 07:23:22;;;;;;;2.17;1.67;;;;;;;29.16;40.12;102106.94;10576923;28;20506;-76
2022/08/10 07:28:24;;;;;;;2.67;1.20;;;;;;;29.08;41.08;102103.16;10591770;28;20568;-76
2022/08/10 07:33:27;;;;;;;2.08;1.58;;;;;;;29.16;38.47;102099.31;10593184;28;20032;-76
2022/08/10 07:38:30;;;;;;;2.75;1.20;;;;;;;28.89;38.78;102104.00;10598027;28;20048;-76
2022/08/10 07:43:36;;;;;;;1.85;0.82;;;;;;;28.79;39.66;102096.88;10572570;28;20036;-76
2022/08/10 07:48:46;;;;;;;2.97;1.08;;;;;;;28.35;40.04;102092.66;10571896;28;20050;-76
2022/08/10 07:53:51;;;;;;;2.72;1.02;;;;;;;27.78;40.76;102096.88;10570971;28;20414;-76
2022/08/10 07:59:00;;;;;;;2.17;1.65;;;;;;;26.93;41.97;102089.63;10574633;28;20044;-76
2022/08/10 08:04:05;;;;;;;1.50;1.17;;;;;;;26.18;42.40;102089.28;10571535;28;20043;-78
2022/08/10 08:09:08;;;;;;;5.10;2.33;;;;;;;25.52;44.33;102090.25;10572054;28;20044;-78
2022/08/10 08:14:11;;;;;;;1.27;1.17;;;;;;;24.88;45.97;102094.31;10573963;28;20501;-78
2022/08/10 08:19:16;;;;;;;1.15;1.05;;;;;;;24.49;47.36;102098.44;10570415;28;20042;-78
2022/08/10 08:24:19;;;;;;;1.92;1.58;;;;;;;24.26;48.74;102099.84;10569899;28;20052;-78
2022/08/10 08:29:21;;;;;;;1.33;1.13;;;;;;;24.01;47.98;102090.41;10593826;28;20501;-79
2022/08/10 08:34:24;;;;;;;1.73;1.20;;;;;;;23.88;48.21;102097.88;10569120;28;20044;-78
2022/08/10 08:39:26;;;;;;;2.65;1.30;;;;;;;23.72;49.33;102096.78;10572435;28;20062;-78
2022/08/10 08:44:50;;;;;;;2.17;1.20;;;;;;;23.59;48.89;102087.44;10570256;28;20047;-80
2022/08/10 08:50:10;;;;;;;4.30;1.63;;;;;;;23.49;50.27;102087.78;10586566;28;20048;-80
2022/08/10 08:55:31;;;;;;;1.50;1.17;;;;;;;23.68;48.99;102079.84;10585296;28;20070;-79
2022/08/10 09:00:44;;;;;;;2.70;1.40;;;;;;;24.44;47.88;102086.56;10589818;28;20035;-79
2022/08/10 09:06:05;;;;;;;5.50;1.80;;;;;;;25.32;45.95;102075.06;10571283;28;20040;-78
2022/08/10 09:11:24;;;;;;;2.72;1.20;;;;;;;26.02;43.92;102075.91;10566620;27;20044;-78
2022/08/10 09:16:58;;;;;;;1.67;1.20;;;;;;;26.84;42.06;102066.41;10521650;28;20039;-79
2022/08/10 09:22:05;;;;;;;1.13;0.90;;;;;;;27.03;40.84;102075.06;10551590;28;20040;-79
2022/08/10 09:27:35;;;;;;;1.42;0.85;;;;;;;27.22;39.70;102068.75;10551268;28;20047;-79
2022/08/10 09:32:50;;;;;;;1.10;1.00;;;;;;;26.87;40.36;102065.69;10556748;28;20643;-78
2022/08/10 09:38:12;;;;;;;1.08;0.88;;;;;;;26.47;39.34;102060.06;10567292;28;20040;-79
2022/08/10 09:43:26;;;;;;;1.00;0.85;;;;;;;26.07;38.72;102056.00;10574882;28;20036;-79
2022/08/10 09:48:49;;;;;;;1.15;1.05;;;;;;;25.68;37.65;102056.69;10555996;28;20032;-79
2022/08/10 09:53:59;;;;;;;1.20;0.90;;;;;;;25.30;38.29;102057.75;10564635;28;20042;-79
2022/08/10 09:59:14;;;;;;;1.00;0.88;;;;;;;25.11;38.34;102055.47;10548935;28;20040;-79
2022/08/10 10:04:32;;;;;;;1.57;0.80;;;;;;;24.97;38.53;102052.09;10523423;28;20044;-79
2022/08/10 10:10:01;;;;;;;1.77;1.17;;;;;;;24.72;38.95;102050.38;10557122;28;20036;-79
2022/08/10 10:15:30;;;;;;;1.50;1.10;;;;;;;24.59;39.31;102055.09;10573653;28;20074;-79
2022/08/10 10:21:07;;;;;;;1.95;1.20;;;;;;;24.45;40.71;102046.09;10558475;28;20071;-79
2022/08/10 10:26:21;;;;;;;3.35;1.15;;;;;;;24.47;40.80;102043.78;10548760;28;20051;-82
2022/08/10 10:31:57;;;;;;;0.90;0.90;;;;;;;24.56;41.53;102042.56;10561925;28;20036;-81
2022/08/10 10:37:00;;;;;;;1.38;0.98;;;;;;;24.54;41.38;102044.06;10572722;28;20413;-81
2022/08/10 10:42:26;;;;;;;1.35;1.00;;;;;;;24.35;41.17;102033.31;10570217;28;20048;-81
2022/08/10 10:47:28;;;;;;;;;;;;;;;24.19;42.67;102026.63;10574309;28;20043;-81
2022/08/10 10:53:08;;;;;;;1.20;1.08;;;;;;;23.99;41.33;102033.84;10572316;28;20440;-81
2022/08/10 10:58:28;;;;;;;1.23;0.90;;;;;;;23.77;41.49;102024.53;10573737;28;20054;-81
2022/08/10 11:03:52;;;;;;;3.88;3.30;;;;;;;23.65;42.52;102021.66;10572704;28;20044;-81
2022/08/10 11:09:02;;;;;;;1.33;0.90;;;;;;;23.64;42.76;102027.59;10553581;28;20035;-81
2022/08/10 11:14:12;;;;;;;2.30;0.95;;;;;;;23.60;43.54;102019.00;10575183;28;20043;-81
2022/08/10 11:19:22;;;;;;;0.85;0.80;;;;;;;23.37;43.66;102018.44;10610323;28;20047;-81
2022/08/10 11:24:45;;;;;;;1.40;1.17;;;;;;;23.29;44.42;102015.66;10560585;28;20051;-80
2022/08/10 11:29:58;;;;;;;1.00;0.90;;;;;;;23.21;43.79;102014.53;10613120;28;20046;-81
2022/08/10 11:35:08;;;;;;;3.03;1.20;;;;;;;23.27;45.15;102015.19;10536146;28;20522;-83
2022/08/10 11:40:21;;;;;;;2.58;1.00;;;;;;;23.17;44.74;102010.75;10568673;28;20047;-79
2022/08/10 11:45:30;;;;;;;0.98;0.80;;;;;;;23.15;44.84;102018.66;10566655;28;20437;-81
2022/08/10 11:50:42;;;;;;;1.25;0.90;;;;;;;23.14;44.71;102022.63;10585657;28;20043;-82
2022/08/10 11:55:52;;;;;;;2.03;1.00;;;;;;;23.19;45.49;102011.22;10576825;28;20044;-82
2022/08/10 12:00:56;;;;;;;2.08;0.80;;;;;;;23.31;45.31;102016.16;10578635;28;20532;-80
2022/08/10 12:05:59;;;;;;;1.75;0.80;;;;;;;23.27;44.97;102007.59;10575523;28;20062;-79
2022/08/10 12:11:01;;;;;;;3.03;0.80;;;;;;;23.21;44.16;102008.91;10554846;28;20048;-80
2022/08/10 12:16:11;;;;;;;1.08;0.93;;;;;;;23.13;44.05;102001.38;10572245;28;20051;-79
2022/08/10 12:21:26;;;;;;;0.85;0.85;;;;;;;23.10;44.01;101994.47;10560637;28;20035;-80
2022/08/10 12:26:37;;;;;;;1.20;0.90;;;;;;;23.11;44.34;101993.31;10584252;28;20044;-78
2022/08/10 12:31:44;;;;;;;1.20;1.00;;;;;;;23.06;44.80;101995.44;10593579;28;20028;-79
2022/08/10 12:36:53;;;;;;;1.42;0.90;;;;;;;23.09;44.73;101992.81;10590411;28;20059;-80
2022/08/10 12:42:03;;;;;;;1.70;0.82;;;;;;;22.99;44.96;101990.38;10593005;28;20044;-80
2022/08/10 12:47:21;;;;;;;1.83;0.98;;;;;;;22.88;45.90;101977.03;10566702;28;20050;-79
2022/08/10 12:52:36;;;;;;;2.38;1.17;;;;;;;22.83;46.65;101976.06;10560793;28;20521;-79
2022/08/10 12:57:39;;;;;;;1.55;1.00;;;;;;;22.82;46.38;101973.59;10576076;28;20059;-83
2022/08/10 13:02:43;;;;;;;2.58;1.02;;;;;;;22.78;46.76;101970.63;10555688;28;20047;-79
2022/08/10 13:07:46;;;;;;;1.23;0.90;;;;;;;22.77;46.57;101968.16;10569191;28;20044;-80
2022/08/10 13:12:50;;;;;;;1.08;0.82;;;;;;;22.71;45.36;101959.09;10585818;28;20414;-80
2022/08/10 13:17:55;;;;;;;1.85;1.00;;;;;;;22.65;46.05;101960.44;10578142;28;20039;-79
2022/08/10 13:22:59;;;;;;;1.25;0.90;;;;;;;22.58;46.21;101953.69;10616838;28;20055;-82
2022/08/10 13:28:05;;;;;;;3.25;1.00;;;;;;;22.52;46.27;101959.44;10600525;28;20055;-91
2022/08/10 13:33:10;;;;;;;1.75;0.90;;;;;;;22.51;46.53;101952.19;10571434;28;20036;-83
2022/08/10 13:38:19;;;;;;;0.75;0.68;;;;;;;22.42;46.00;101951.41;10610012;28;20063;-94
2022/08/10 13:43:22;;;;;;;1.88;1.08;;;;;;;22.42;45.71;101939.41;10595942;28;20043;-88
2022/08/10 13:48:31;;;;;;;1.05;0.75;;;;;;;22.38;45.36;101938.38;10558900;28;20043;-91
2022/08/10 13:53:33;;;;;;;5.18;1.10;;;;;;;22.32;44.81;101931.31;10558550;28;20141;-84
2022/08/10 13:58:37;;;;;;;2.35;0.85;;;;;;;22.20;44.05;101929.19;10537758;28;20990;-82
2022/08/10 14:03:42;;;;;;;3.25;1.00;;;;;;;22.12;44.46;101933.63;10579878;28;20505;-83
2022/08/10 14:08:50;;;;;;;4.95;1.63;;;;;;;22.15;44.69;101924.56;10588810;28;20035;-82
2022/08/10 14:14:15;;;;;;;0.85;0.68;;;;;;;22.16;44.94;101922.59;10558943;28;20040;-85
2022/08/10 14:19:21;;;;;;;1.55;0.75;;;;;;;22.19;44.89;101913.56;10561015;28;20039;-85
2022/08/10 14:24:25;;;;;;;0.77;0.77;;;;;;;22.20;45.03;101906.81;10549686;28;20516;-88
2022/08/10 14:29:28;;;;;;;2.75;1.40;;;;;;;22.19;44.61;101917.16;10610374;28;20050;-84
2022/08/10 14:34:36;;;;;;;2.13;0.98;;;;;;;22.13;44.58;101912.09;10587778;28;20497;-82
2022/08/10 14:39:48;;;;;;;4.05;0.80;;;;;;;22.04;43.99;101917.66;10562639;28;20059;-83
2022/08/10 14:45:03;;;;;;;1.13;0.90;;;;;;;22.04;43.46;101919.59;10594277;28;20047;-82
2022/08/10 14:50:06;;;;;;;1.20;1.00;;;;;;;21.97;42.36;101920.91;10597594;28;20040;-81
2022/08/10 14:55:10;;;;;;;1.92;0.80;;;;;;;21.95;42.29;101909.25;10594387;28;20062;-82
2022/08/10 15:00:13;;;;;;;0.73;0.70;;;;;;;21.96;42.22;101910.06;10562224;28;20044;-81
2022/08/10 15:05:17;;;;;;;1.83;0.95;;;;;;;21.96;42.45;101908.09;10583056;28;20048;-84
2022/08/10 15:10:21;;;;;;;1.52;0.82;;;;;;;21.94;42.66;101907.59;10585538;28;20050;-82
2022/08/10 15:15:25;;;;;;;2.03;1.20;;;;;;;21.87;42.71;101898.91;10605946;28;20055;-83
2022/08/10 15:20:29;;;;;;;3.22;2.08;;;;;;;21.81;42.67;101900.19;10589244;28;20536;-80
2022/08/10 15:25:33;;;;;;;2.17;1.08;;;;;;;21.74;42.36;101902.66;10588725;28;20039;-83
2022/08/10 15:30:42;;;;;;;1.10;1.00;;;;;;;21.74;42.27;101908.22;10594340;28;20046;-80
2022/08/10 15:41:09;;;;;;;1.13;0.80;;;;;;;21.65;42.29;101907.38;10586631;28;20050;-86
2022/08/10 15:46:15;;;;;;;1.20;0.80;;;;;;;21.56;42.16;101909.34;10580930;28;20042;-84
2022/08/10 15:51:31;;;;;;;2.23;1.10;;;;;;;21.52;42.96;101908.31;10560527;28;20413;-79
2022/08/10 15:56:48;;;;;;;1.73;1.05;;;;;;;21.54;42.96;101908.84;10533402;28;20768;-79
2022/08/10 16:01:53;;;;;;;4.82;2.08;;;;;;;21.44;42.73;101904.38;10557364;28;20497;-82
2022/08/10 16:07:04;;;;;;;3.50;1.40;;;;;;;21.31;42.75;101903.34;10585370;28;20405;-80
2022/08/10 16:12:12;;;;;;;1.40;1.00;;;;;;;21.24;43.96;101908.59;10583911;28;20050;-78
2022/08/10 16:17:15;;;;;;;2.55;1.15;;;;;;;21.19;44.34;101903.13;10592196;28;20048;-79
2022/08/10 16:22:19;;;;;;;1.10;1.00;;;;;;;21.12;45.18;101899.13;10580162;28;20401;-79
2022/08/10 16:27:23;;;;;;;2.42;1.75;;;;;;;21.13;46.15;101896.00;10570688;28;20058;-78
2022/08/10 16:32:28;;;;;;;1.77;1.05;;;;;;;21.12;47.69;101894.38;10593558;28;20418;-78
2022/08/10 16:37:34;;;;;;;2.45;1.20;;;;;;;21.08;48.83;101897.00;10578228;28;20047;-77
2022/08/10 16:42:40;;;;;;;1.60;1.15;;;;;;;21.00;49.65;101897.78;10604568;28;20027;-77
2022/08/10 16:47:47;;;;;;;9.93;3.67;;;;;;;20.96;50.29;101904.31;10561318;28;20425;-76
2022/08/10 16:52:50;;;;;;;2.28;1.40;;;;;;;20.88;50.84;101902.31;10544667;28;20525;-77
2022/08/10 16:57:55;;;;;;;1.35;1.20;;;;;;;20.81;51.31;101901.94;10575555;28;20044;-77
2022/08/10 17:03:03;;;;;;;1.75;1.30;;;;;;;20.74;51.47;101891.22;10578046;28;20060;-78
2022/08/10 17:08:08;;;;;;;1.40;1.20;;;;;;;20.64;51.34;101877.53;10551959;28;20100;-78
2022/08/10 17:13:10;;;;;;;2.17;1.10;;;;;;;20.57;51.34;101877.19;10562799;28;20051;-78
2022/08/10 17:18:26;;;;;;;2.20;1.23;;;;;;;20.51;51.89;101876.50;10590769;28;20043;-78
2022/08/10 17:23:32;;;;;;;1.83;1.20;;;;;;;20.40;51.43;101866.72;10555369;28;20423;-78
2022/08/10 17:28:37;;;;;;;1.73;1.10;;;;;;;20.31;51.35;101869.47;10568258;28;20040;-78
2022/08/10 17:33:42;;;;;;;4.40;1.90;;;;;;;20.26;51.61;101864.00;10557947;28;20066;-78
2022/08/10 17:38:48;;;;;;;3.15;1.80;;;;;;;20.21;51.45;101852.97;10613133;28;20043;-77
2022/08/10 17:43:56;;;;;;;2.83;1.30;;;;;;;20.17;51.44;101866.72;10583330;28;20047;-77
2022/08/10 17:49:04;;;;;;;1.77;1.40;;;;;;;20.21;51.44;101868.88;10598928;28;20060;-75
2022/08/10 17:54:25;;;;;;;3.50;1.42;;;;;;;20.23;51.42;101872.16;10595933;28;20040;-76
2022/08/10 17:59:29;;;;;;;2.80;1.42;;;;;;;20.37;51.44;101876.53;10599076;28;20059;-78
2022/08/10 18:04:31;;;;;;;4.00;2.50;;;;;;;20.36;51.73;101874.06;10598658;28;20067;-75
2022/08/10 18:09:36;;;;;;;4.43;2.10;;;;;;;20.46;51.90;101874.66;10598948;28;20054;-75
2022/08/10 18:14:42;;;;;;;3.75;2.00;;;;;;;20.43;52.53;101871.69;10615945;28;20043;-75
2022/08/10 18:19:49;;;;;;;2.95;1.90;;;;;;;20.57;51.78;101874.41;10597742;28;20044;-75
2022/08/10 18:24:53;;;;;;;3.17;2.22;;;;;;;20.60;52.27;101871.78;10574411;28;20051;-75
2022/08/10 18:30:01;;;;;;;2.85;1.80;;;;;;;20.62;52.88;101866.72;10573783;28;20040;-75
2022/08/10 18:35:06;;;;;;;3.20;2.00;;;;;;;20.53;53.51;101865.84;10541488;28;20031;-76
2022/08/10 18:40:09;;;;;;;3.08;1.60;;;;;;;20.60;53.46;101877.38;10547817;28;20514;-78
2022/08/10 18:45:31;;;;;;;4.35;1.60;;;;;;;20.66;53.85;101873.31;10564994;28;20055;-78
2022/08/10 18:50:42;;;;;;;4.20;1.80;;;;;;;20.67;53.59;101882.50;10595283;28;20436;-78
2022/08/10 18:55:48;;;;;;;2.58;1.90;;;;;;;20.68;54.24;101878.56;10577896;28;20555;-76
2022/08/10 19:01:21;;;;;;;2.40;1.48;;;;;;;20.57;54.29;101880.78;10596166;28;20047;-78
2022/08/10 19:06:50;;;;;;;2.17;1.50;;;;;;;20.55;54.54;101887.84;10596517;28;20036;-76
2022/08/10 19:12:04;;;;;;;3.13;1.70;;;;;;;20.46;55.08;101887.78;10566801;28;20508;-76
2022/08/10 19:17:28;;;;;;;2.92;1.45;;;;;;;20.51;54.91;101893.22;10573340;28;20035;-77
2022/08/10 19:22:45;;;;;;;3.65;1.63;;;;;;;20.49;54.56;101887.16;10607700;28;20032;-77
2022/08/10 19:28:09;;;;;;;5.65;1.85;;;;;;;20.47;54.72;101889.41;10603998;28;20040;-76
2022/08/10 19:33:22;;;;;;;5.18;1.92;;;;;;;20.51;54.96;101889.63;10556948;28;20050;-76
2022/08/10 19:38:52;;;;;;;5.57;2.00;;;;;;;20.48;55.51;101885.50;10589491;28;20040;-75
2022/08/10 19:44:22;;;;;;;3.15;1.77;;;;;;;20.43;55.75;101896.78;10585515;28;20415;-78
2022/08/10 19:49:42;;;;;;;7.30;3.75;;;;;;;20.24;56.84;101887.75;10588210;27;20497;-77
2022/08/10 19:54:48;;;;;;;;;;;;;;;20.16;57.16;101895.72;10607529;28;20038;-77
2022/08/10 20:00:18;;;;;;;8.88;3.30;;;;;;;19.99;57.90;101898.38;10570955;28;19924;-76
2022/08/10 20:05:27;;;;;;;7.03;3.70;;;;;;;19.87;58.51;101903.66;10581093;28;20043;-75
2022/08/10 20:10:46;;;;;;;8.10;3.97;;;;;;;19.69;59.43;101894.31;10574777;28;20040;-76
2022/08/10 20:16:14;;;;;;;6.60;3.70;;;;;;;19.60;59.90;101889.78;10593337;28;20054;-75
2022/08/10 20:21:27;;;;;;;5.18;3.53;;;;;;;19.68;60.33;101897.41;10573426;28;20036;-75
2022/08/10 20:26:34;;;;;;;6.95;3.45;;;;;;;19.75;60.13;101895.00;10582413;28;20043;-75
2022/08/10 20:32:01;;;;;;;6.18;2.85;;;;;;;19.70;60.74;101898.75;10554741;28;20050;-76
2022/08/10 20:37:11;;;;;;;4.53;2.55;;;;;;;19.74;61.00;101904.50;10556309;28;20028;-75
2022/08/10 20:42:36;;;;;;;5.40;2.60;;;;;;;19.68;62.04;101902.97;10558584;28;20059;-76
2022/08/10 20:47:58;;;;;;;4.65;2.65;;;;;;;19.75;62.03;101895.84;10580450;28;20165;-76
2022/08/10 20:53:08;;;;;;;3.33;2.55;;;;;;;19.77;62.23;101901.09;10599901;28;20063;-75
2022/08/10 20:58:13;;;;;;;3.92;2.28;;;;;;;19.77;61.89;101884.38;10586340;28;20062;-77
2022/08/10 21:03:20;;;;;;;4.53;1.90;;;;;;;19.79;62.13;101876.56;10581238;28;20047;-77
2022/08/10 21:09:00;;;;;;;3.10;1.90;;;;;;;19.72;62.48;101888.09;10597957;28;20409;-77
2022/08/10 21:14:27;;;;;;;7.40;2.45;;;;;;;19.68;62.92;101892.66;10586337;28;20051;-77
2022/08/10 21:19:48;;;;;;;2.67;2.00;;;;;;;19.54;63.57;101877.94;10603390;28;20417;-78
2022/08/10 21:25:08;;;;;;;4.38;2.60;;;;;;;19.48;64.12;101877.19;10600094;28;20042;-78
2022/08/10 22:51:41;;;;;;;2.97;1.88;;;;;;;19.42;61.73;101864.50;10594345;28;20456;-77
2022/08/10 23:02:25;;;;;;;3.35;2.20;;;;;;;19.37;61.04;101861.84;10601083;28;20036;-76
2022/08/10 23:07:29;;;;;;;4.65;2.42;;;;;;;19.26;61.60;101871.53;10548760;28;20420;-77
2022/08/10 23:12:36;;;;;;;2.58;1.70;;;;;;;19.28;61.56;101863.72;10590860;28;20039;-78
2022/08/10 23:23:02;;;;;;;3.83;1.88;;;;;;;19.22;61.67;101848.22;10569281;28;20043;-77
2022/08/10 23:28:06;;;;;;;2.92;2.00;;;;;;;19.20;61.92;101850.50;10563384;28;20051;-77
2022/08/10 23:33:09;;;;;;;4.15;1.85;;;;;;;19.17;61.85;101840.81;10603615;28;20043;-76
2022/08/10 23:38:23;;;;;;;3.10;2.15;;;;;;;19.09;62.21;101854.63;10587538;28;20048;-78
2022/08/10 23:43:31;;;;;;;4.78;2.38;;;;;;;19.06;62.36;101855.25;10580329;28;20035;-78
2022/08/10 23:48:38;;;;;;;6.07;1.90;;;;;;;19.07;61.68;101857.72;10588355;28;20040;-77
2022/08/10 23:53:41;;;;;;;;;;;;;;;19.09;61.89;101851.84;10584287;28;20540;-78
2022/08/10 23:58:46;;;;;;;3.60;2.40;;;;;;;19.11;61.67;101858.78;10588895;28;19942;-77
